View Sortable Currents For Network
ASOSAWOSCoCoRaHSCOOPDCPISUSM
SchoolNetOtherSCANMy FavoritesBy StateRWIS
RWIS SurfaceRWIS TrafficRWIS SoilBy NWS WFO

Current AWOS Conditions

** This page will automatically refresh every five minutes.
Sorted by: (Altimeter)     Click on a column to sort it.

Add ID: Name: Ob Time   Wind [knots]   Rainfall
Temp (Hi / Lo) DewP Feels RH% Dir Speed Peak Gust
@ Time
Alti Vsby Hour Today
ORCOrange City09:35 AM 72(72/63) 59 72 64 70 35 @ 12:15 AM 30.12 10 0
SLBStorm Lake09:35 AM 72(72/64) 59 72 64 40 813 @ 08:15 AM 30.12 10 0
ADUAUDUBON09:35 AM 72(72/66) 64 73 76 10 78 @ 07:55 AM 30.12 10 0
LRJLE MARS09:35 AM 72(72/61) 61 72 68 20 56 @ 07:15 AM 30.12 10 0
DNSDENISON09:35 AM 72(73/66) 61 72 68 50 812 @ 08:55 AM 30.12 10 0
CKPCherokee09:35 AM 72(72/62) 60 72 66 30 58 @ 12:35 AM 30.11 10 0
SHLSHELDON09:35 AM 72(72/57) 61 72 68 40 45 @ 12:15 AM 30.11 10 0
CAVCLARION09:35 AM 73(73/64) 59 73 61 20 8G1414 @ 09:35 AM 30.1 10 0
CBFCOUNCIL BLUFFS09:35 AM 73(77/72) 66 74 79 20 910 @ 07:35 AM 30.1 10 0
AXAALGONA09:35 AM 73(73/64) 59 73 61 40 812 @ 12:55 AM 30.1 10 0
FXYForest City09:35 AM 73(73/63) 61 73 66 20 69 @ 03:35 AM 30.1 10 0
CINCARROLL09:35 AM 73(73/66) 63 74 71 50 713 @ 09:15 AM 30.1 10 0
HNRHARLAN09:35 AM 72(72/68) 64 73 76 60 712 @ 07:35 AM 30.1 10 0
ICLCLARINDA09:35 AM 79(79/64) 72 79 0 05 @ 04:35 AM 30.09 10 0
IFAIowa Falls09:35 AM 73(74/68) 61 73 66 20 99 @ 08:35 AM 30.09 10 0 0.0001
PROPerry09:35 AM 74(74/69) 67 79 6 @ 05:55 AM 30.09 10 0
CSQCRESTON09:35 AM 73(73/70) 70 75 90 40 711 @ 08:55 AM 30.09 10 0
FODFORT DODGE08:56 AM 71(72/66) 61 71 71 40 68 @ 08:35 AM 30.09 10 0 0
AIOATLANTIC09:35 AM 73(73/68) 66 74 79 40 99 @ 07:55 AM 30.09 10 0
BNWBOONE MUNI09:35 AM 73(73/66) 64 74 73 10 1214 @ 03:55 AM 30.08 10 0
RDKRED OAK09:35 AM 77(77/68) 72 78 85 20 89 @ 07:55 AM 30.08 10 0
SDASHENANDOAH MUNI09:35 AM 79(79/68) 73 82 82 40 66 @ 08:35 AM 30.08 10 0
CCYCHARLES CITY09:35 AM 72(73/68) 61 72 68 360 9G1515 @ 04:15 AM 30.07 10 0
I75Osceola09:35 AM 75(75/70) 71 75 87 10 47 @ 07:55 AM 30.07 10 0
EBSWebster City09:35 AM 73(73/64) 61 73 66 30 810 @ 08:35 AM 30.07 10 0
IKVANKENY09:35 AM 75(79/70) 68 77 79 40 89 @ 05:55 AM 30.07 10 0
HPTHampton09:35 AM 72(72/64) 61 72 68 30 1114 @ 09:15 AM 30.07 10 0
TVKCenterville09:35 AM 82(82/68) 75 79 0 06 @ 07:35 AM 30.06 10 0
GGIGrinnell09:35 AM 76(76/70) 69 77 79 350 69 @ 07:35 AM 30.06 10 0
OLZOELWEIN09:35 AM 73(77/70) 63 74 71 20 9G1515 @ 07:35 AM 30.06 10 0
TNUNEWTON MUNI09:35 AM 75(75/72) 70 75 84 10 914 @ 07:55 AM 30.05 10 0
CNCCHARITON09:35 AM 75(75/70) 72 74 90 10 913 @ 08:35 AM 30.05 10 0
PEAPELLA09:35 AM 78(78/71) 70 80 76 360 37 @ 07:55 AM 30.05 10 0
DEHDECORAH09:35 AM 72(73/68) 61 72 68 20 915 @ 08:35 AM 30.05 10 0
OOAOskaloosa09:35 AM 77(77/69) 72 78 85 20 810 @ 07:35 AM 30.04 10 0
OXVKnoxville09:35 AM 77(77/73) 72 78 85 330 811 @ 06:35 AM 30.04 10 0
IIBINDEPENDENCE09:35 AM 74(74/69) 66 75 76 360 716 @ 01:35 AM 30.04 10 0
VTIVINTON09:35 AM 76(76/72) 68 77 76 350 914 @ 07:55 AM 30.03 10 0
AWGWASHINGTON09:35 AM 79(79/70) 79 84 100 350 912 @ 07:55 AM 30.02 10 0
MXOMONTICELLO MUNI09:35 AM 75(75/68) 73 73 94 340 5G1113 @ 08:35 AM 30.01 10 0 0.03
FFLFAIRFIELD09:35 AM 81(81/72) 73 86 77 350 911 @ 08:15 AM 30.01 10 0 0.02
MPZMOUNT PLEASANT09:35 AM 81(81/70) 75 87 82 350 88 @ 09:35 AM 30 10 0 0.0001
FSWFORT MADISON09:35 AM 82(82/72) 77 90 85 330 45 @ 09:15 AM 30 10 0
MUTMUSCATINE09:35 AM 81(81/72) 73 86 77 320 1011 @ 06:35 AM 29.99 10 0
EOKKEOKUK MUNI09:35 AM 82(82/70) 75 89 79 350 56 @ 08:55 AM 29.99 10 0
CWICLINTON08:56 AM 77(77/68) 73 78 87 310 49 @ 09:35 AM 29.98 10 0